sensor_id;sensor_type;location;lat;lon;timestamp;temperature;humidity
9425;DHT22;17139;52.140;11.636;2023-12-20T00:01:58;5.90;72.90
9425;DHT22;17139;52.140;11.636;2023-12-20T00:04:25;5.90;73.00
9425;DHT22;17139;52.140;11.636;2023-12-20T00:06:52;5.90;73.00
9425;DHT22;17139;52.140;11.636;2023-12-20T00:09:19;5.90;73.10
9425;DHT22;17139;52.140;11.636;2023-12-20T00:11:47;6.60;71.20
9425;DHT22;17139;52.140;11.636;2023-12-20T00:14:14;6.50;70.50
9425;DHT22;17139;52.140;11.636;2023-12-20T00:16:41;6.40;70.90
9425;DHT22;17139;52.140;11.636;2023-12-20T00:19:08;6.30;71.90
9425;DHT22;17139;52.140;11.636;2023-12-20T00:21:35;6.20;72.30
9425;DHT22;17139;52.140;11.636;2023-12-20T00:24:03;6.10;72.60
9425;DHT22;17139;52.140;11.636;2023-12-20T00:26:30;6.00;72.80
9425;DHT22;17139;52.140;11.636;2023-12-20T00:28:58;5.90;72.80
9425;DHT22;17139;52.140;11.636;2023-12-20T00:31:25;5.90;73.00
9425;DHT22;17139;52.140;11.636;2023-12-20T00:33:52;5.90;73.10
9425;DHT22;17139;52.140;11.636;2023-12-20T00:36:20;5.90;73.00
9425;DHT22;17139;52.140;11.636;2023-12-20T00:38:48;5.90;73.00
9425;DHT22;17139;52.140;11.636;2023-12-20T00:41:15;5.90;73.10
9425;DHT22;17139;52.140;11.636;2023-12-20T00:43:42;5.90;73.20
9425;DHT22;17139;52.140;11.636;2023-12-20T00:46:11;5.90;73.10
9425;DHT22;17139;52.140;11.636;2023-12-20T00:48:38;6.30;72.70
9425;DHT22;17139;52.140;11.636;2023-12-20T00:51:07;6.30;72.10
9425;DHT22;17139;52.140;11.636;2023-12-20T00:53:35;6.10;72.40
9425;DHT22;17139;52.140;11.636;2023-12-20T00:56:02;6.00;72.60
9425;DHT22;17139;52.140;11.636;2023-12-20T00:58:29;6.00;73.00
9425;DHT22;17139;52.140;11.636;2023-12-20T01:00:56;6.00;73.10
9425;DHT22;17139;52.140;11.636;2023-12-20T01:03:23;5.90;73.10
9425;DHT22;17139;52.140;11.636;2023-12-20T01:05:50;5.90;73.10
9425;DHT22;17139;52.140;11.636;2023-12-20T01:08:17;5.90;73.10
9425;DHT22;17139;52.140;11.636;2023-12-20T01:10:44;5.90;73.00
9425;DHT22;17139;52.140;11.636;2023-12-20T01:13:12;5.90;73.00
9425;DHT22;17139;52.140;11.636;2023-12-20T01:15:39;5.80;73.00
9425;DHT22;17139;52.140;11.636;2023-12-20T01:18:06;5.90;73.20
9425;DHT22;17139;52.140;11.636;2023-12-20T01:20:34;6.10;73.00
9425;DHT22;17139;52.140;11.636;2023-12-20T01:23:02;6.10;72.40
9425;DHT22;17139;52.140;11.636;2023-12-20T01:25:29;6.00;72.60
9425;DHT22;17139;52.140;11.636;2023-12-20T01:27:56;6.00;72.90
9425;DHT22;17139;52.140;11.636;2023-12-20T01:30:23;6.00;73.00
9425;DHT22;17139;52.140;11.636;2023-12-20T01:32:50;6.10;73.10
9425;DHT22;17139;52.140;11.636;2023-12-20T01:35:17;6.10;73.10
9425;DHT22;17139;52.140;11.636;2023-12-20T01:37:45;6.10;73.00
9425;DHT22;17139;52.140;11.636;2023-12-20T01:40:12;6.10;73.00
9425;DHT22;17139;52.140;11.636;2023-12-20T01:42:40;6.00;73.00
9425;DHT22;17139;52.140;11.636;2023-12-20T01:45:08;6.00;73.10
9425;DHT22;17139;52.140;11.636;2023-12-20T01:47:36;6.40;71.80
9425;DHT22;17139;52.140;11.636;2023-12-20T01:50:04;6.20;72.30
9425;DHT22;17139;52.140;11.636;2023-12-20T01:52:34;6.10;72.60
9425;DHT22;17139;52.140;11.636;2023-12-20T01:55:03;6.90;70.60
9425;DHT22;17139;52.140;11.636;2023-12-20T01:57:36;6.50;70.30
9425;DHT22;17139;52.140;11.636;2023-12-20T02:00:04;6.20;72.30
9425;DHT22;17139;52.140;11.636;2023-12-20T02:02:33;6.00;73.00
9425;DHT22;17139;52.140;11.636;2023-12-20T02:05:00;5.80;73.10
9425;DHT22;17139;52.140;11.636;2023-12-20T02:07:28;5.70;73.40
9425;DHT22;17139;52.140;11.636;2023-12-20T02:09:55;5.60;73.50
9425;DHT22;17139;52.140;11.636;2023-12-20T02:12:24;5.40;73.30
9425;DHT22;17139;52.140;11.636;2023-12-20T02:14:51;5.40;73.50
9425;DHT22;17139;52.140;11.636;2023-12-20T02:17:19;5.40;73.60
9425;DHT22;17139;52.140;11.636;2023-12-20T02:19:46;5.30;73.60
9425;DHT22;17139;52.140;11.636;2023-12-20T02:22:15;5.20;73.50
9425;DHT22;17139;52.140;11.636;2023-12-20T02:24:42;5.20;73.60
9425;DHT22;17139;52.140;11.636;2023-12-20T02:27:09;5.40;73.30
9425;DHT22;17139;52.140;11.636;2023-12-20T02:29:36;5.50;73.00
9425;DHT22;17139;52.140;11.636;2023-12-20T02:32:03;5.40;73.20
9425;DHT22;17139;52.140;11.636;2023-12-20T02:34:30;5.30;73.20
9425;DHT22;17139;52.140;11.636;2023-12-20T02:36:57;5.30;73.20
9425;DHT22;17139;52.140;11.636;2023-12-20T02:39:26;5.30;73.20
9425;DHT22;17139;52.140;11.636;2023-12-20T02:41:53;5.30;73.20
9425;DHT22;17139;52.140;11.636;2023-12-20T02:44:20;5.30;73.20
9425;DHT22;17139;52.140;11.636;2023-12-20T02:46:47;5.30;73.20
9425;DHT22;17139;52.140;11.636;2023-12-20T02:49:14;5.30;73.20
9425;DHT22;17139;52.140;11.636;2023-12-20T02:51:41;5.30;73.20
9425;DHT22;17139;52.140;11.636;2023-12-20T02:54:08;5.30;73.20
9425;DHT22;17139;52.140;11.636;2023-12-20T02:56:36;5.30;73.20
9425;DHT22;17139;52.140;11.636;2023-12-20T02:59:04;5.30;73.20
9425;DHT22;17139;52.140;11.636;2023-12-20T03:01:31;5.60;72.50
9425;DHT22;17139;52.140;11.636;2023-12-20T03:03:58;5.50;72.00
9425;DHT22;17139;52.140;11.636;2023-12-20T03:06:25;5.40;72.50
9425;DHT22;17139;52.140;11.636;2023-12-20T03:08:53;5.30;72.80
9425;DHT22;17139;52.140;11.636;2023-12-20T03:11:20;5.20;73.70
9425;DHT22;17139;52.140;11.636;2023-12-20T03:13:48;5.20;73.80
9425;DHT22;17139;52.140;11.636;2023-12-20T03:16:15;5.10;73.10
9425;DHT22;17139;52.140;11.636;2023-12-20T03:18:42;5.10;73.20
9425;DHT22;17139;52.140;11.636;2023-12-20T03:21:09;5.10;73.30
9425;DHT22;17139;52.140;11.636;2023-12-20T03:23:36;5.00;73.30
9425;DHT22;17139;52.140;11.636;2023-12-20T03:26:03;5.00;73.40
9425;DHT22;17139;52.140;11.636;2023-12-20T03:28:33;5.10;73.10
9425;DHT22;17139;52.140;11.636;2023-12-20T03:31:02;5.00;72.80
9425;DHT22;17139;52.140;11.636;2023-12-20T03:33:29;5.00;73.00
9425;DHT22;17139;52.140;11.636;2023-12-20T03:35:56;5.50;71.70
9425;DHT22;17139;52.140;11.636;2023-12-20T03:38:23;5.30;71.50
9425;DHT22;17139;52.140;11.636;2023-12-20T03:40:50;5.10;72.10
9425;DHT22;17139;52.140;11.636;2023-12-20T03:43:17;5.00;72.70
9425;DHT22;17139;52.140;11.636;2023-12-20T03:45:44;4.90;72.90
9425;DHT22;17139;52.140;11.636;2023-12-20T03:48:12;4.80;73.10
9425;DHT22;17139;52.140;11.636;2023-12-20T03:50:39;4.70;73.30
9425;DHT22;17139;52.140;11.636;2023-12-20T03:53:06;4.60;73.30
9425;DHT22;17139;52.140;11.636;2023-12-20T03:55:34;4.60;73.40
9425;DHT22;17139;52.140;11.636;2023-12-20T03:58:01;4.50;73.40
9425;DHT22;17139;52.140;11.636;2023-12-20T04:00:28;4.50;73.60
9425;DHT22;17139;52.140;11.636;2023-12-20T04:02:55;4.70;73.00
9425;DHT22;17139;52.140;11.636;2023-12-20T04:05:24;4.60;72.50
9425;DHT22;17139;52.140;11.636;2023-12-20T04:07:51;4.50;72.80
9425;DHT22;17139;52.140;11.636;2023-12-20T04:10:19;4.90;72.00
9425;DHT22;17139;52.140;11.636;2023-12-20T04:12:45;4.70;71.60
9425;DHT22;17139;52.140;11.636;2023-12-20T04:15:13;4.60;72.30
9425;DHT22;17139;52.140;11.636;2023-12-20T04:17:39;4.40;72.60
9425;DHT22;17139;52.140;11.636;2023-12-20T04:20:07;4.30;73.00
9425;DHT22;17139;52.140;11.636;2023-12-20T04:22:36;4.20;73.00
9425;DHT22;17139;52.140;11.636;2023-12-20T04:25:03;4.20;73.20
9425;DHT22;17139;52.140;11.636;2023-12-20T04:27:30;4.20;73.30
9425;DHT22;17139;52.140;11.636;2023-12-20T04:29:58;4.10;73.30
9425;DHT22;17139;52.140;11.636;2023-12-20T04:32:25;4.10;73.40
9425;DHT22;17139;52.140;11.636;2023-12-20T04:34:52;4.00;73.40
9425;DHT22;17139;52.140;11.636;2023-12-20T04:37:19;4.00;73.50
9425;DHT22;17139;52.140;11.636;2023-12-20T04:39:47;4.00;73.50
9425;DHT22;17139;52.140;11.636;2023-12-20T04:42:14;4.00;73.50
9425;DHT22;17139;52.140;11.636;2023-12-20T04:44:41;4.40;72.30
9425;DHT22;17139;52.140;11.636;2023-12-20T04:47:09;4.40;71.80
9425;DHT22;17139;52.140;11.636;2023-12-20T04:49:36;4.30;72.30
9425;DHT22;17139;52.140;11.636;2023-12-20T04:52:03;4.20;72.30
9425;DHT22;17139;52.140;11.636;2023-12-20T04:54:31;4.20;72.60
9425;DHT22;17139;52.140;11.636;2023-12-20T04:56:59;4.10;72.70
9425;DHT22;17139;52.140;11.636;2023-12-20T04:59:26;4.10;72.90
9425;DHT22;17139;52.140;11.636;2023-12-20T05:01:53;4.00;72.80
9425;DHT22;17139;52.140;11.636;2023-12-20T05:04:21;4.00;72.80
9425;DHT22;17139;52.140;11.636;2023-12-20T05:06:47;3.90;72.70
9425;DHT22;17139;52.140;11.636;2023-12-20T05:09:15;3.90;72.80
9425;DHT22;17139;52.140;11.636;2023-12-20T05:11:43;4.00;72.70
9425;DHT22;17139;52.140;11.636;2023-12-20T05:14:11;4.00;72.30
9425;DHT22;17139;52.140;11.636;2023-12-20T05:16:38;3.90;72.50
9425;DHT22;17139;52.140;11.636;2023-12-20T05:19:05;4.20;71.70
9425;DHT22;17139;52.140;11.636;2023-12-20T05:21:33;4.20;71.50
9425;DHT22;17139;52.140;11.636;2023-12-20T05:24:00;4.00;72.00
9425;DHT22;17139;52.140;11.636;2023-12-20T05:26:27;3.90;72.20
9425;DHT22;17139;52.140;11.636;2023-12-20T05:28:55;3.90;72.60
9425;DHT22;17139;52.140;11.636;2023-12-20T05:31:23;4.20;71.70
9425;DHT22;17139;52.140;11.636;2023-12-20T05:33:50;4.10;71.40
9425;DHT22;17139;52.140;11.636;2023-12-20T05:36:18;4.00;72.00
9425;DHT22;17139;52.140;11.636;2023-12-20T05:38:45;4.00;72.30
9425;DHT22;17139;52.140;11.636;2023-12-20T05:41:12;4.00;72.40
9425;DHT22;17139;52.140;11.636;2023-12-20T05:43:39;4.00;72.40
9425;DHT22;17139;52.140;11.636;2023-12-20T05:46:06;4.00;72.40
9425;DHT22;17139;52.140;11.636;2023-12-20T05:48:34;4.00;72.30
9425;DHT22;17139;52.140;11.636;2023-12-20T05:51:01;4.80;70.30
9425;DHT22;17139;52.140;11.636;2023-12-20T05:53:28;4.60;70.20
9425;DHT22;17139;52.140;11.636;2023-12-20T05:55:55;4.50;70.90
9425;DHT22;17139;52.140;11.636;2023-12-20T05:58:22;4.40;71.20
9425;DHT22;17139;52.140;11.636;2023-12-20T06:00:49;4.40;71.50
9425;DHT22;17139;52.140;11.636;2023-12-20T06:03:16;4.30;71.60
9425;DHT22;17139;52.140;11.636;2023-12-20T06:05:45;4.30;71.70
9425;DHT22;17139;52.140;11.636;2023-12-20T06:08:12;4.30;71.70
9425;DHT22;17139;52.140;11.636;2023-12-20T06:10:39;4.30;71.80
9425;DHT22;17139;52.140;11.636;2023-12-20T06:13:06;4.30;72.10
9425;DHT22;17139;52.140;11.636;2023-12-20T06:15:33;4.30;72.20
9425;DHT22;17139;52.140;11.636;2023-12-20T06:18:01;4.30;72.30
9425;DHT22;17139;52.140;11.636;2023-12-20T06:20:28;4.30;72.30
9425;DHT22;17139;52.140;11.636;2023-12-20T06:22:56;4.50;72.50
9425;DHT22;17139;52.140;11.636;2023-12-20T06:25:23;4.60;71.90
9425;DHT22;17139;52.140;11.636;2023-12-20T06:27:50;4.60;72.10
9425;DHT22;17139;52.140;11.636;2023-12-20T06:30:17;4.50;72.10
9425;DHT22;17139;52.140;11.636;2023-12-20T06:32:44;4.60;72.20
9425;DHT22;17139;52.140;11.636;2023-12-20T06:35:12;4.60;72.40
9425;DHT22;17139;52.140;11.636;2023-12-20T06:37:39;4.60;72.10
9425;DHT22;17139;52.140;11.636;2023-12-20T06:40:10;4.60;71.90
9425;DHT22;17139;52.140;11.636;2023-12-20T06:42:37;4.60;72.00
9425;DHT22;17139;52.140;11.636;2023-12-20T06:45:05;4.50;71.70
9425;DHT22;17139;52.140;11.636;2023-12-20T06:47:32;4.90;71.70
9425;DHT22;17139;52.140;11.636;2023-12-20T06:49:59;4.80;71.10
9425;DHT22;17139;52.140;11.636;2023-12-20T06:52:26;4.70;71.50
9425;DHT22;17139;52.140;11.636;2023-12-20T06:54:53;5.10;71.40
9425;DHT22;17139;52.140;11.636;2023-12-20T06:57:22;5.00;70.90
9425;DHT22;17139;52.140;11.636;2023-12-20T06:59:49;4.90;71.20
9425;DHT22;17139;52.140;11.636;2023-12-20T07:02:17;4.80;71.60
9425;DHT22;17139;52.140;11.636;2023-12-20T07:04:44;4.80;71.80
9425;DHT22;17139;52.140;11.636;2023-12-20T07:07:12;4.80;72.00
9425;DHT22;17139;52.140;11.636;2023-12-20T07:09:39;4.90;72.00
9425;DHT22;17139;52.140;11.636;2023-12-20T07:12:08;4.90;71.90
9425;DHT22;17139;52.140;11.636;2023-12-20T07:14:36;4.90;71.90
9425;DHT22;17139;52.140;11.636;2023-12-20T07:17:03;4.90;71.90
9425;DHT22;17139;52.140;11.636;2023-12-20T07:19:30;4.90;71.70
9425;DHT22;17139;52.140;11.636;2023-12-20T07:21:58;5.30;71.10
9425;DHT22;17139;52.140;11.636;2023-12-20T07:24:25;5.90;68.60
9425;DHT22;17139;52.140;11.636;2023-12-20T07:26:52;5.60;69.00
9425;DHT22;17139;52.140;11.636;2023-12-20T07:29:19;6.00;67.40
9425;DHT22;17139;52.140;11.636;2023-12-20T07:31:47;5.60;68.30
9425;DHT22;17139;52.140;11.636;2023-12-20T07:34:14;5.30;69.30
9425;DHT22;17139;52.140;11.636;2023-12-20T07:36:41;5.10;70.20
9425;DHT22;17139;52.140;11.636;2023-12-20T07:39:08;5.00;70.70
9425;DHT22;17139;52.140;11.636;2023-12-20T07:41:35;5.00;71.10
9425;DHT22;17139;52.140;11.636;2023-12-20T07:44:04;5.00;72.00
9425;DHT22;17139;52.140;11.636;2023-12-20T07:46:31;5.40;73.50
9425;DHT22;17139;52.140;11.636;2023-12-20T07:48:59;5.80;73.10
9425;DHT22;17139;52.140;11.636;2023-12-20T07:51:26;6.00;71.70
9425;DHT22;17139;52.140;11.636;2023-12-20T07:53:53;5.90;71.10
9425;DHT22;17139;52.140;11.636;2023-12-20T07:56:20;6.40;67.60
9425;DHT22;17139;52.140;11.636;2023-12-20T07:58:47;6.10;68.90
9425;DHT22;17139;52.140;11.636;2023-12-20T08:01:16;5.90;69.70
9425;DHT22;17139;52.140;11.636;2023-12-20T08:03:44;5.70;69.80
9425;DHT22;17139;52.140;11.636;2023-12-20T08:06:13;5.60;70.30
9425;DHT22;17139;52.140;11.636;2023-12-20T08:08:40;5.40;70.60
9425;DHT22;17139;52.140;11.636;2023-12-20T08:11:07;5.40;70.80
9425;DHT22;17139;52.140;11.636;2023-12-20T08:13:34;5.30;70.80
9425;DHT22;17139;52.140;11.636;2023-12-20T08:16:01;5.30;70.80
9425;DHT22;17139;52.140;11.636;2023-12-20T08:18:30;5.30;70.90
9425;DHT22;17139;52.140;11.636;2023-12-20T08:20:56;5.30;70.90
9425;DHT22;17139;52.140;11.636;2023-12-20T08:23:25;5.30;70.90
9425;DHT22;17139;52.140;11.636;2023-12-20T08:25:52;5.30;70.90
9425;DHT22;17139;52.140;11.636;2023-12-20T08:28:19;5.40;71.00
9425;DHT22;17139;52.140;11.636;2023-12-20T08:30:46;6.00;69.40
9425;DHT22;17139;52.140;11.636;2023-12-20T08:33:13;5.80;69.20
9425;DHT22;17139;52.140;11.636;2023-12-20T08:35:40;5.80;69.60
9425;DHT22;17139;52.140;11.636;2023-12-20T08:38:07;5.70;70.00
9425;DHT22;17139;52.140;11.636;2023-12-20T08:40:36;6.40;66.70
9425;DHT22;17139;52.140;11.636;2023-12-20T08:43:03;6.20;68.30
9425;DHT22;17139;52.140;11.636;2023-12-20T08:45:30;6.00;69.80
9425;DHT22;17139;52.140;11.636;2023-12-20T08:47:57;5.90;69.70
9425;DHT22;17139;52.140;11.636;2023-12-20T08:50:25;6.60;66.10
9425;DHT22;17139;52.140;11.636;2023-12-20T08:52:52;6.30;67.70
9425;DHT22;17139;52.140;11.636;2023-12-20T08:55:19;6.00;68.80
9425;DHT22;17139;52.140;11.636;2023-12-20T08:57:48;6.10;68.40
9425;DHT22;17139;52.140;11.636;2023-12-20T09:00:16;6.00;68.80
9425;DHT22;17139;52.140;11.636;2023-12-20T09:02:46;5.80;69.60
9425;DHT22;17139;52.140;11.636;2023-12-20T09:05:13;6.20;68.10
9425;DHT22;17139;52.140;11.636;2023-12-20T09:07:40;6.00;68.50
9425;DHT22;17139;52.140;11.636;2023-12-20T09:10:07;5.80;69.40
9425;DHT22;17139;52.140;11.636;2023-12-20T09:12:34;5.80;70.00
9425;DHT22;17139;52.140;11.636;2023-12-20T09:15:05;5.80;70.20
9425;DHT22;17139;52.140;11.636;2023-12-20T09:17:32;5.90;70.40
9425;DHT22;17139;52.140;11.636;2023-12-20T09:19:59;5.90;70.30
9425;DHT22;17139;52.140;11.636;2023-12-20T09:22:26;6.00;70.30
9425;DHT22;17139;52.140;11.636;2023-12-20T09:24:53;6.00;70.20
9425;DHT22;17139;52.140;11.636;2023-12-20T09:27:20;6.00;70.10
9425;DHT22;17139;52.140;11.636;2023-12-20T09:29:47;6.00;69.80
9425;DHT22;17139;52.140;11.636;2023-12-20T09:32:16;6.00;69.80
9425;DHT22;17139;52.140;11.636;2023-12-20T09:34:43;6.00;69.80
9425;DHT22;17139;52.140;11.636;2023-12-20T09:37:10;5.90;69.70
9425;DHT22;17139;52.140;11.636;2023-12-20T09:39:37;6.00;69.80
9425;DHT22;17139;52.140;11.636;2023-12-20T09:42:05;6.00;69.90
9425;DHT22;17139;52.140;11.636;2023-12-20T09:44:33;5.90;69.80
9425;DHT22;17139;52.140;11.636;2023-12-20T09:47:02;5.90;69.70
9425;DHT22;17139;52.140;11.636;2023-12-20T09:49:33;5.90;69.70
9425;DHT22;17139;52.140;11.636;2023-12-20T09:52:00;6.00;69.80
9425;DHT22;17139;52.140;11.636;2023-12-20T09:54:28;6.10;69.90
9425;DHT22;17139;52.140;11.636;2023-12-20T09:56:56;6.10;69.80
9425;DHT22;17139;52.140;11.636;2023-12-20T09:59:23;6.10;69.60
9425;DHT22;17139;52.140;11.636;2023-12-20T10:01:50;6.10;69.60
9425;DHT22;17139;52.140;11.636;2023-12-20T10:04:18;6.60;66.30
9425;DHT22;17139;52.140;11.636;2023-12-20T10:06:47;6.50;66.80
9425;DHT22;17139;52.140;11.636;2023-12-20T10:09:14;6.40;67.30
9425;DHT22;17139;52.140;11.636;2023-12-20T10:11:41;6.40;67.70
9425;DHT22;17139;52.140;11.636;2023-12-20T10:14:10;6.40;67.90
9425;DHT22;17139;52.140;11.636;2023-12-20T10:16:37;6.30;68.90
9425;DHT22;17139;52.140;11.636;2023-12-20T10:19:04;6.30;68.90
9425;DHT22;17139;52.140;11.636;2023-12-20T10:21:31;6.20;69.00
9425;DHT22;17139;52.140;11.636;2023-12-20T10:24:00;6.20;69.20
9425;DHT22;17139;52.140;11.636;2023-12-20T10:26:27;6.20;69.20
9425;DHT22;17139;52.140;11.636;2023-12-20T10:28:56;6.10;69.10
9425;DHT22;17139;52.140;11.636;2023-12-20T10:31:27;6.10;69.40
9425;DHT22;17139;52.140;11.636;2023-12-20T10:33:56;6.10;69.60
9425;DHT22;17139;52.140;11.636;2023-12-20T10:36:23;6.20;69.70
9425;DHT22;17139;52.140;11.636;2023-12-20T10:38:53;7.00;65.20
9425;DHT22;17139;52.140;11.636;2023-12-20T10:41:26;6.90;65.90
9425;DHT22;17139;52.140;11.636;2023-12-20T10:43:57;6.90;65.50
9425;DHT22;17139;52.140;11.636;2023-12-20T10:46:26;6.80;66.50
9425;DHT22;17139;52.140;11.636;2023-12-20T10:48:54;6.60;66.90
9425;DHT22;17139;52.140;11.636;2023-12-20T10:51:23;6.50;67.30
9425;DHT22;17139;52.140;11.636;2023-12-20T10:53:52;6.50;67.50
9425;DHT22;17139;52.140;11.636;2023-12-20T10:56:21;6.40;67.70
9425;DHT22;17139;52.140;11.636;2023-12-20T10:58:49;6.30;68.90
9425;DHT22;17139;52.140;11.636;2023-12-20T11:01:18;6.30;69.00
9425;DHT22;17139;52.140;11.636;2023-12-20T11:03:50;6.40;68.00
9425;DHT22;17139;52.140;11.636;2023-12-20T11:06:26;6.40;68.00
9425;DHT22;17139;52.140;11.636;2023-12-20T11:09:01;6.40;67.90
9425;DHT22;17139;52.140;11.636;2023-12-20T11:11:42;7.10;64.90
9425;DHT22;17139;52.140;11.636;2023-12-20T11:14:17;6.90;65.80
9425;DHT22;17139;52.140;11.636;2023-12-20T11:16:45;6.70;66.60
9425;DHT22;17139;52.140;11.636;2023-12-20T11:19:12;6.60;66.90
9425;DHT22;17139;52.140;11.636;2023-12-20T11:21:40;6.60;67.00
9425;DHT22;17139;52.140;11.636;2023-12-20T11:24:07;6.50;67.10
9425;DHT22;17139;52.140;11.636;2023-12-20T11:26:36;6.50;67.40
9425;DHT22;17139;52.140;11.636;2023-12-20T11:29:30;6.50;67.30
9425;DHT22;17139;52.140;11.636;2023-12-20T11:31:57;6.50;67.50
9425;DHT22;17139;52.140;11.636;2023-12-20T11:34:27;6.50;67.50
9425;DHT22;17139;52.140;11.636;2023-12-20T11:36:59;6.60;67.70
9425;DHT22;17139;52.140;11.636;2023-12-20T11:39:28;6.60;67.60
9425;DHT22;17139;52.140;11.636;2023-12-20T11:42:04;6.60;67.60
9425;DHT22;17139;52.140;11.636;2023-12-20T11:44:31;6.60;67.40
9425;DHT22;17139;52.140;11.636;2023-12-20T11:46:59;7.40;63.90
9425;DHT22;17139;52.140;11.636;2023-12-20T11:49:26;7.10;64.90
9425;DHT22;17139;52.140;11.636;2023-12-20T11:51:55;7.30;64.00
9425;DHT22;17139;52.140;11.636;2023-12-20T11:54:22;7.10;65.00
9425;DHT22;17139;52.140;11.636;2023-12-20T11:56:49;6.90;65.90
9425;DHT22;17139;52.140;11.636;2023-12-20T11:59:17;6.90;66.40
9425;DHT22;17139;52.140;11.636;2023-12-20T12:01:48;6.90;66.70
9425;DHT22;17139;52.140;11.636;2023-12-20T12:04:16;6.80;67.00
9425;DHT22;17139;52.140;11.636;2023-12-20T12:06:43;6.80;67.10
9425;DHT22;17139;52.140;11.636;2023-12-20T12:09:11;6.70;67.00
9425;DHT22;17139;52.140;11.636;2023-12-20T12:11:38;6.80;67.10
9425;DHT22;17139;52.140;11.636;2023-12-20T12:14:04;6.70;67.00
9425;DHT22;17139;52.140;11.636;2023-12-20T12:16:32;6.70;67.00
9425;DHT22;17139;52.140;11.636;2023-12-20T12:18:59;6.70;67.00
9425;DHT22;17139;52.140;11.636;2023-12-20T12:21:27;6.70;67.00
9425;DHT22;17139;52.140;11.636;2023-12-20T12:23:54;6.70;67.00
9425;DHT22;17139;52.140;11.636;2023-12-20T12:26:21;7.30;65.10
9425;DHT22;17139;52.140;11.636;2023-12-20T12:28:51;7.10;65.50
9425;DHT22;17139;52.140;11.636;2023-12-20T12:31:18;6.90;66.50
9425;DHT22;17139;52.140;11.636;2023-12-20T12:33:46;6.80;67.10
9425;DHT22;17139;52.140;11.636;2023-12-20T12:36:13;6.70;67.00
9425;DHT22;17139;52.140;11.636;2023-12-20T12:38:43;6.70;67.30
9425;DHT22;17139;52.140;11.636;2023-12-20T12:41:12;6.60;67.30
9425;DHT22;17139;52.140;11.636;2023-12-20T12:43:40;6.60;67.40
9425;DHT22;17139;52.140;11.636;2023-12-20T12:46:08;6.60;67.50
9425;DHT22;17139;52.140;11.636;2023-12-20T12:48:35;6.60;67.70
9425;DHT22;17139;52.140;11.636;2023-12-20T12:51:04;6.50;67.60
9425;DHT22;17139;52.140;11.636;2023-12-20T12:53:32;6.60;67.40
9425;DHT22;17139;52.140;11.636;2023-12-20T12:55:59;6.50;67.30
9425;DHT22;17139;52.140;11.636;2023-12-20T12:58:26;6.50;67.70
9425;DHT22;17139;52.140;11.636;2023-12-20T13:00:53;6.90;66.30
9425;DHT22;17139;52.140;11.636;2023-12-20T13:03:21;6.70;66.40
9425;DHT22;17139;52.140;11.636;2023-12-20T13:05:48;6.50;67.10
9425;DHT22;17139;52.140;11.636;2023-12-20T13:08:17;6.30;68.60
9425;DHT22;17139;52.140;11.636;2023-12-20T13:10:44;6.20;68.90
9425;DHT22;17139;52.140;11.636;2023-12-20T13:13:11;6.20;69.00
9425;DHT22;17139;52.140;11.636;2023-12-20T13:15:38;6.10;69.10
9425;DHT22;17139;52.140;11.636;2023-12-20T13:18:05;6.10;69.40
9425;DHT22;17139;52.140;11.636;2023-12-20T13:20:32;6.10;69.60
9425;DHT22;17139;52.140;11.636;2023-12-20T13:23:00;6.00;69.60
9425;DHT22;17139;52.140;11.636;2023-12-20T13:25:28;6.10;69.80
9425;DHT22;17139;52.140;11.636;2023-12-20T13:27:55;6.10;69.70
9425;DHT22;17139;52.140;11.636;2023-12-20T13:30:22;6.90;66.30
9425;DHT22;17139;52.140;11.636;2023-12-20T13:32:49;6.60;66.30
9425;DHT22;17139;52.140;11.636;2023-12-20T13:35:16;6.40;67.20
9425;DHT22;17139;52.140;11.636;2023-12-20T13:37:43;7.10;65.40
9425;DHT22;17139;52.140;11.636;2023-12-20T13:40:11;6.70;65.80
9425;DHT22;17139;52.140;11.636;2023-12-20T13:42:39;6.40;66.70
9425;DHT22;17139;52.140;11.636;2023-12-20T13:45:07;6.30;68.50
9425;DHT22;17139;52.140;11.636;2023-12-20T13:47:35;6.10;68.80
9425;DHT22;17139;52.140;11.636;2023-12-20T13:50:02;6.10;69.10
9425;DHT22;17139;52.140;11.636;2023-12-20T13:52:29;6.10;69.30
9425;DHT22;17139;52.140;11.636;2023-12-20T13:54:56;6.10;69.40
9425;DHT22;17139;52.140;11.636;2023-12-20T13:57:23;6.00;69.40
9425;DHT22;17139;52.140;11.636;2023-12-20T13:59:52;6.20;68.50
9425;DHT22;17139;52.140;11.636;2023-12-20T14:02:19;6.10;68.30
9425;DHT22;17139;52.140;11.636;2023-12-20T14:04:46;6.00;68.90
9425;DHT22;17139;52.140;11.636;2023-12-20T14:07:13;5.90;69.30
9425;DHT22;17139;52.140;11.636;2023-12-20T14:09:41;5.80;69.60
9425;DHT22;17139;52.140;11.636;2023-12-20T14:12:11;5.70;69.70
9425;DHT22;17139;52.140;11.636;2023-12-20T14:14:38;5.70;70.00
9425;DHT22;17139;52.140;11.636;2023-12-20T14:17:06;5.60;70.80
9425;DHT22;17139;52.140;11.636;2023-12-20T14:19:33;5.70;69.70
9425;DHT22;17139;52.140;11.636;2023-12-20T14:22:00;5.70;69.60
9425;DHT22;17139;52.140;11.636;2023-12-20T14:24:29;5.50;69.70
9425;DHT22;17139;52.140;11.636;2023-12-20T14:26:56;5.40;69.90
9425;DHT22;17139;52.140;11.636;2023-12-20T14:29:24;6.00;67.70
9425;DHT22;17139;52.140;11.636;2023-12-20T14:31:51;5.90;68.10
9425;DHT22;17139;52.140;11.636;2023-12-20T14:34:19;5.70;68.60
9425;DHT22;17139;52.140;11.636;2023-12-20T14:36:46;5.50;68.90
9425;DHT22;17139;52.140;11.636;2023-12-20T14:39:13;5.40;69.30
9425;DHT22;17139;52.140;11.636;2023-12-20T14:41:40;5.30;69.40
9425;DHT22;17139;52.140;11.636;2023-12-20T14:44:08;5.20;70.40
9425;DHT22;17139;52.140;11.636;2023-12-20T14:46:35;5.10;69.70
9425;DHT22;17139;52.140;11.636;2023-12-20T14:49:03;5.10;69.80
9425;DHT22;17139;52.140;11.636;2023-12-20T14:51:32;5.00;69.90
9425;DHT22;17139;52.140;11.636;2023-12-20T14:54:00;4.90;69.90
9425;DHT22;17139;52.140;11.636;2023-12-20T14:56:27;4.90;70.00
9425;DHT22;17139;52.140;11.636;2023-12-20T14:58:54;4.90;70.10
9425;DHT22;17139;52.140;11.636;2023-12-20T15:01:21;4.80;70.10
9425;DHT22;17139;52.140;11.636;2023-12-20T15:03:49;4.80;70.00
9425;DHT22;17139;52.140;11.636;2023-12-20T15:06:16;5.40;67.10
9425;DHT22;17139;52.140;11.636;2023-12-20T15:08:45;5.30;67.50
9425;DHT22;17139;52.140;11.636;2023-12-20T15:11:12;5.10;68.10
9425;DHT22;17139;52.140;11.636;2023-12-20T15:13:40;5.00;68.80
9425;DHT22;17139;52.140;11.636;2023-12-20T15:16:08;4.90;69.00
9425;DHT22;17139;52.140;11.636;2023-12-20T15:18:35;4.80;69.30
9425;DHT22;17139;52.140;11.636;2023-12-20T15:21:02;4.70;69.50
9425;DHT22;17139;52.140;11.636;2023-12-20T15:23:31;4.70;69.50
9425;DHT22;17139;52.140;11.636;2023-12-20T15:26:00;4.70;69.60
9425;DHT22;17139;52.140;11.636;2023-12-20T15:28:27;4.70;69.60
9425;DHT22;17139;52.140;11.636;2023-12-20T15:30:54;4.90;68.60
9425;DHT22;17139;52.140;11.636;2023-12-20T15:33:22;4.90;68.50
9425;DHT22;17139;52.140;11.636;2023-12-20T15:35:49;4.70;68.80
9425;DHT22;17139;52.140;11.636;2023-12-20T15:38:16;5.50;66.00
9425;DHT22;17139;52.140;11.636;2023-12-20T15:40:43;5.20;67.40
9425;DHT22;17139;52.140;11.636;2023-12-20T15:43:12;5.00;67.70
9425;DHT22;17139;52.140;11.636;2023-12-20T15:45:39;5.40;66.30
9425;DHT22;17139;52.140;11.636;2023-12-20T15:48:06;5.20;66.70